createdAt,value
2019-05-07T00:00:59.764Z,8.10
2019-05-07T00:03:29.085Z,8.10
2019-05-07T00:05:58.408Z,8.10
2019-05-07T00:08:27.684Z,8.10
2019-05-07T00:10:56.950Z,8.10
2019-05-07T00:13:26.192Z,8.00
2019-05-07T00:15:55.598Z,8.00
2019-05-07T00:18:24.902Z,8.00
2019-05-07T00:20:54.255Z,8.00
2019-05-07T00:23:23.713Z,7.90
2019-05-07T00:25:53.056Z,7.90
2019-05-07T00:28:23.063Z,7.90
2019-05-07T00:30:52.539Z,7.80
2019-05-07T00:33:22.868Z,7.80
2019-05-07T00:36:09.596Z,7.80
2019-05-07T00:38:42.762Z,7.80
2019-05-07T00:41:31.877Z,7.70
2019-05-07T00:44:03.226Z,7.70
2019-05-07T00:46:32.991Z,7.70
2019-05-07T00:49:02.492Z,7.60
2019-05-07T00:51:33.795Z,7.60
2019-05-07T00:54:05.529Z,7.60
2019-05-07T00:56:34.773Z,7.60
2019-05-07T00:59:04.221Z,7.60
2019-05-07T01:01:34.547Z,7.60
2019-05-07T01:04:03.870Z,7.50
2019-05-07T01:06:33.276Z,7.50
2019-05-07T01:09:03.432Z,7.60
2019-05-07T01:11:33.498Z,7.50
2019-05-07T01:14:03.183Z,7.60
2019-05-07T01:16:33.879Z,7.50
2019-05-07T01:19:03.055Z,7.50
2019-05-07T01:21:32.613Z,7.50
2019-05-07T01:24:03.272Z,7.50
2019-05-07T01:26:35.096Z,7.50
2019-05-07T01:29:04.324Z,7.40
2019-05-07T01:31:43.176Z,7.50
2019-05-07T01:34:44.007Z,7.50
2019-05-07T01:37:13.439Z,7.40
2019-05-07T01:39:42.781Z,7.40
2019-05-07T01:42:12.733Z,7.40
2019-05-07T01:44:42.262Z,7.40
2019-05-07T01:47:13.071Z,7.30
2019-05-07T01:49:42.626Z,7.40
2019-05-07T01:52:13.286Z,7.40
2019-05-07T01:54:42.779Z,7.30
2019-05-07T01:57:12.263Z,7.40
2019-05-07T01:59:42.746Z,7.30
2019-05-07T02:02:24.007Z,7.40
2019-05-07T02:05:12.256Z,7.40
2019-05-07T02:07:47.207Z,7.40
2019-05-07T02:10:35.646Z,7.30
2019-05-07T02:13:05.069Z,7.30
2019-05-07T02:15:34.525Z,7.30
2019-05-07T02:18:04.486Z,7.30
2019-05-07T02:20:33.801Z,7.40
2019-05-07T02:23:03.060Z,7.30
2019-05-07T02:25:32.908Z,7.40
2019-05-07T02:28:02.539Z,7.40
2019-05-07T02:30:34.931Z,7.40
2019-05-07T02:33:03.761Z,7.40
2019-05-07T02:35:33.973Z,7.40
2019-05-07T02:38:13.875Z,7.40
2019-05-07T02:40:54.344Z,7.50
2019-05-07T02:43:29.346Z,7.50
2019-05-07T02:46:25.682Z,7.60
2019-05-07T02:49:16.913Z,7.60
2019-05-07T02:51:55.362Z,7.60
2019-05-07T02:54:43.860Z,7.60
2019-05-07T02:57:16.906Z,7.60
2019-05-07T02:59:44.389Z,7.70
2019-05-07T03:02:14.035Z,7.70
2019-05-07T03:04:43.764Z,7.70
2019-05-07T03:07:13.356Z,7.80
2019-05-07T03:09:43.297Z,7.80
2019-05-07T03:12:13.444Z,7.80
2019-05-07T03:14:43.758Z,7.80
2019-05-07T03:17:13.943Z,7.80
2019-05-07T03:19:45.137Z,7.90
2019-05-07T03:22:14.473Z,7.90
2019-05-07T03:24:54.534Z,7.90
2019-05-07T03:27:23.882Z,7.90
2019-05-07T03:30:04.288Z,7.90
2019-05-07T03:32:40.230Z,7.90
2019-05-07T03:35:28.681Z,7.90
2019-05-07T03:37:58.234Z,7.90
2019-05-07T03:40:29.192Z,7.90
2019-05-07T03:43:01.862Z,7.90
2019-05-07T03:45:48.509Z,7.90
2019-05-07T03:48:23.918Z,7.90
2019-05-07T03:50:53.518Z,7.90
2019-05-07T03:53:23.436Z,7.90
2019-05-07T03:55:54.047Z,7.90
2019-05-07T03:58:24.111Z,7.80
2019-05-07T04:00:53.867Z,7.80
2019-05-07T04:03:24.825Z,7.80
2019-05-07T04:05:54.187Z,7.80
2019-05-07T04:08:24.012Z,7.80
2019-05-07T04:10:53.942Z,7.80
2019-05-07T04:13:24.532Z,7.80
2019-05-07T04:15:54.292Z,7.70
2019-05-07T04:18:24.060Z,7.70
2019-05-07T04:20:55.371Z,7.80
2019-05-07T04:23:24.638Z,7.80
2019-05-07T04:26:00.337Z,7.80
2019-05-07T04:29:05.736Z,7.80
2019-05-07T04:31:39.009Z,7.90
2019-05-07T04:34:19.495Z,7.90
2019-05-07T04:36:53.138Z,7.90
2019-05-07T04:39:23.141Z,7.90
2019-05-07T04:41:53.012Z,7.90
2019-05-07T04:44:23.687Z,8.00
2019-05-07T04:46:53.447Z,8.00
2019-05-07T04:49:24.029Z,8.10
2019-05-07T04:52:18.492Z,8.10
2019-05-07T04:54:47.836Z,8.10
2019-05-07T04:57:28.153Z,8.10
2019-05-07T05:00:03.004Z,8.20
2019-05-07T05:02:39.363Z,8.20
2019-05-07T05:05:08.777Z,8.30
2019-05-07T05:07:38.105Z,8.30
2019-05-07T05:10:07.526Z,8.40
2019-05-07T05:12:42.626Z,8.40
2019-05-07T05:15:12.633Z,8.50
2019-05-07T05:17:49.983Z,8.50
2019-05-07T05:20:14.324Z,8.60
2019-05-07T05:23:05.947Z,8.60
2019-05-07T05:25:37.883Z,8.70
2019-05-07T05:28:07.386Z,8.80
2019-05-07T05:30:42.722Z,8.80
2019-05-07T05:33:12.751Z,8.90
2019-05-07T05:35:43.201Z,9.00
2019-05-07T05:38:13.279Z,9.00
2019-05-07T05:40:42.923Z,9.00
2019-05-07T05:43:28.482Z,9.10
2019-05-07T05:46:02.538Z,9.20
2019-05-07T05:48:33.127Z,9.20
2019-05-07T05:51:08.936Z,9.20
2019-05-07T05:53:52.483Z,9.30
2019-05-07T05:56:42.667Z,9.40
2019-05-07T05:59:47.908Z,9.40
2019-05-07T06:02:28.049Z,9.50
2019-05-07T06:05:34.376Z,9.60
2019-05-07T06:08:09.447Z,9.60
2019-05-07T06:10:49.326Z,9.80
2019-05-07T06:13:24.381Z,9.80
2019-05-07T06:15:59.442Z,9.90
2019-05-07T06:18:53.771Z,10.00
2019-05-07T06:21:42.103Z,10.10
2019-05-07T06:24:13.499Z,10.20
2019-05-07T06:26:42.728Z,10.30
2019-05-07T06:29:12.150Z,10.40
2019-05-07T06:31:42.199Z,10.60
2019-05-07T06:34:14.048Z,10.70
2019-05-07T06:36:43.497Z,10.70
2019-05-07T06:39:19.108Z,10.80
2019-05-07T06:42:06.149Z,10.90
2019-05-07T06:44:36.111Z,11.00
2019-05-07T06:47:05.625Z,11.10
2019-05-07T06:49:34.994Z,11.20
2019-05-07T06:52:04.418Z,11.30
2019-05-07T06:54:33.701Z,11.40
2019-05-07T06:57:03.129Z,11.40
2019-05-07T06:59:38.097Z,11.60
2019-05-07T07:02:28.340Z,11.60
2019-05-07T07:05:02.973Z,11.70
2019-05-07T07:07:38.118Z,11.80
2019-05-07T07:10:32.224Z,11.90
2019-05-07T07:13:02.465Z,11.90
2019-05-07T07:15:32.413Z,12.00
2019-05-07T07:18:03.275Z,12.00
2019-05-07T07:20:33.172Z,12.10
2019-05-07T07:23:02.593Z,12.10
2019-05-07T07:25:32.586Z,12.20
2019-05-07T07:28:02.751Z,12.20
2019-05-07T07:30:54.540Z,12.30
2019-05-07T07:33:26.811Z,12.30
2019-05-07T07:35:56.115Z,12.40
2019-05-07T07:38:35.173Z,12.50
2019-05-07T07:41:29.658Z,12.60
2019-05-07T07:43:59.109Z,12.60
2019-05-07T07:46:28.369Z,12.60
2019-05-07T07:49:07.893Z,12.70
2019-05-07T07:51:40.653Z,12.60
2019-05-07T07:53:59.575Z,12.60
2019-05-07T07:56:52.243Z,12.60
2019-05-07T07:59:37.921Z,12.60
2019-05-07T08:02:15.680Z,12.70
2019-05-07T08:04:45.032Z,12.70
2019-05-07T08:07:14.366Z,12.60
2019-05-07T08:09:43.661Z,12.70
2019-05-07T08:12:14.257Z,12.70
2019-05-07T08:14:43.703Z,12.70
2019-05-07T08:17:13.291Z,12.80
2019-05-07T08:19:43.080Z,12.90
2019-05-07T08:22:13.412Z,12.90
2019-05-07T08:24:42.864Z,13.00
2019-05-07T08:27:14.748Z,13.00
2019-05-07T08:29:43.335Z,13.10
2019-05-07T08:32:32.633Z,13.20
2019-05-07T08:35:08.374Z,13.30
2019-05-07T08:37:37.965Z,13.30
2019-05-07T08:40:07.973Z,13.40
2019-05-07T08:42:37.279Z,13.40
2019-05-07T08:45:28.540Z,13.40
2019-05-07T08:48:01.996Z,13.40
2019-05-07T08:50:32.637Z,13.50
2019-05-07T08:53:02.825Z,13.50
2019-05-07T08:55:32.364Z,13.60
2019-05-07T08:58:02.226Z,13.70
2019-05-07T09:00:32.569Z,13.70
2019-05-07T09:03:02.164Z,13.70
2019-05-07T09:05:32.388Z,13.80
2019-05-07T09:08:02.874Z,13.80
2019-05-07T09:10:32.613Z,13.80
2019-05-07T09:13:02.880Z,13.90
2019-05-07T09:15:32.388Z,13.90
2019-05-07T09:18:02.106Z,14.00
2019-05-07T09:20:32.663Z,14.00
2019-05-07T09:23:02.226Z,14.00
2019-05-07T09:25:35.460Z,14.00
2019-05-07T09:28:04.879Z,14.10
2019-05-07T09:30:52.484Z,14.20
2019-05-07T09:33:42.274Z,14.40
2019-05-07T09:36:22.756Z,14.70
2019-05-07T09:38:56.830Z,15.10
2019-05-07T09:41:29.282Z,15.40
2019-05-07T09:43:58.964Z,15.70
2019-05-07T09:46:28.287Z,16.00
2019-05-07T09:48:57.635Z,16.20
2019-05-07T09:51:26.995Z,16.30
2019-05-07T09:53:56.447Z,16.30
2019-05-07T09:56:25.843Z,16.30
2019-05-07T09:58:55.298Z,16.40
2019-05-07T10:01:24.568Z,16.60
2019-05-07T10:03:54.195Z,16.90
2019-05-07T10:06:25.490Z,17.10
2019-05-07T10:08:54.596Z,17.30
2019-05-07T10:11:33.526Z,17.50
2019-05-07T10:14:33.051Z,17.50
2019-05-07T10:17:25.195Z,17.40
2019-05-07T10:19:54.616Z,17.30
2019-05-07T10:22:24.071Z,17.10
2019-05-07T10:24:53.621Z,16.90
2019-05-07T10:27:23.095Z,16.70
2019-05-07T10:30:02.429Z,16.50
2019-05-07T10:32:54.188Z,16.40
2019-05-07T10:35:23.743Z,16.20
2019-05-07T10:37:53.176Z,16.10
2019-05-07T10:40:22.665Z,15.90
2019-05-07T10:42:52.216Z,15.90
2019-05-07T10:45:42.166Z,15.90
2019-05-07T10:48:29.257Z,15.90
2019-05-07T10:50:59.287Z,16.00
2019-05-07T10:53:28.697Z,16.00
2019-05-07T10:55:59.658Z,15.90
2019-05-07T16:03:36.809Z,19.90
2019-05-07T16:06:07.334Z,19.90
2019-05-07T16:08:42.713Z,19.90
2019-05-07T16:11:12.598Z,19.90
2019-05-07T16:13:52.119Z,20.00
2019-05-07T16:16:21.558Z,20.00
2019-05-07T16:19:12.495Z,19.80
2019-05-07T16:21:42.717Z,19.80
2019-05-07T16:24:12.162Z,19.90
2019-05-07T16:26:42.351Z,19.80
2019-05-07T16:29:13.212Z,19.80
2019-05-07T16:31:44.225Z,19.80
2019-05-07T16:34:13.735Z,19.70
2019-05-07T16:36:43.118Z,19.70
2019-05-07T16:39:12.332Z,19.60
2019-05-07T16:41:42.246Z,19.60
2019-05-07T16:44:12.381Z,19.30
2019-05-07T16:46:42.645Z,19.10
2019-05-07T16:49:12.299Z,19.00
2019-05-07T16:51:44.444Z,19.00
2019-05-07T16:54:12.459Z,19.00
2019-05-07T16:57:02.874Z,18.90
2019-05-07T16:59:32.350Z,19.00
2019-05-07T17:02:07.022Z,18.90
2019-05-07T17:04:36.303Z,19.00
2019-05-07T17:07:07.255Z,19.00
2019-05-07T17:09:36.507Z,18.90
2019-05-07T17:12:08.711Z,18.80
2019-05-07T17:14:38.059Z,18.70
2019-05-07T17:17:07.389Z,18.60
2019-05-07T17:19:36.756Z,18.50
2019-05-07T17:22:06.588Z,18.40
2019-05-07T17:24:36.681Z,18.30
2019-05-07T17:27:05.887Z,18.20
2019-05-07T17:29:35.135Z,18.10
2019-05-07T17:32:04.475Z,18.00
2019-05-07T17:34:33.735Z,17.90
2019-05-07T17:37:03.054Z,17.90
2019-05-07T17:39:32.350Z,17.70
2019-05-07T17:42:02.582Z,17.70
2019-05-07T17:44:33.232Z,17.60
2019-05-07T17:47:03.401Z,17.50
2019-05-07T17:49:33.994Z,17.40
2019-05-07T17:52:03.813Z,17.20
2019-05-07T17:54:33.156Z,17.10
2019-05-07T17:57:02.397Z,17.10
2019-05-07T17:59:32.181Z,16.90
2019-05-07T18:02:32.246Z,16.80
2019-05-07T18:05:02.874Z,16.70
2019-05-07T18:07:33.111Z,16.60
2019-05-07T18:10:04.689Z,16.50
2019-05-07T18:12:34.078Z,16.50
2019-05-07T18:15:03.417Z,16.50
2019-05-07T18:18:00.157Z,16.40
2019-05-07T18:20:28.560Z,16.30
2019-05-07T18:22:57.879Z,16.20
2019-05-07T18:25:27.126Z,16.10
2019-05-07T18:27:56.313Z,16.00
2019-05-07T18:30:25.627Z,16.00
2019-05-07T18:33:16.788Z,16.00
2019-05-07T18:35:48.084Z,15.90
2019-05-07T18:38:17.262Z,15.70
2019-05-07T18:40:46.605Z,15.70
2019-05-07T18:43:16.067Z,15.60
2019-05-07T18:45:45.422Z,15.50
2019-05-07T18:48:16.350Z,15.50
2019-05-07T18:50:45.657Z,15.40
2019-05-07T18:53:14.993Z,15.30
2019-05-07T18:55:44.327Z,15.30
2019-05-07T18:58:13.559Z,15.20
2019-05-07T19:00:46.889Z,15.10
2019-05-07T19:03:16.263Z,15.10
2019-05-07T19:05:45.666Z,15.10
2019-05-07T19:08:14.928Z,15.00
2019-05-07T19:10:44.153Z,14.90
2019-05-07T19:13:13.402Z,14.80
2019-05-07T19:15:42.665Z,14.70
2019-05-07T19:18:12.195Z,14.60
2019-05-07T19:20:42.189Z,14.60
2019-05-07T19:23:12.068Z,14.50
2019-05-07T19:25:42.093Z,14.50
2019-05-07T19:28:14.914Z,14.50
2019-05-07T19:30:43.006Z,14.50
2019-05-07T19:33:12.472Z,14.40
2019-05-07T19:35:42.006Z,14.40
2019-05-07T19:38:11.259Z,14.40
2019-05-07T19:40:42.632Z,14.30
2019-05-07T19:43:12.304Z,14.20
2019-05-07T19:45:41.891Z,14.20
2019-05-07T19:48:12.435Z,14.10
2019-05-07T19:50:43.502Z,14.00
2019-05-07T19:53:12.706Z,14.00
2019-05-07T19:56:01.918Z,13.90
2019-05-07T19:58:32.712Z,13.90
2019-05-07T20:01:03.071Z,13.80
2019-05-07T20:03:32.305Z,13.80
2019-05-07T20:06:02.441Z,13.80
2019-05-07T20:08:32.480Z,13.80
2019-05-07T20:11:12.091Z,13.70
2019-05-07T20:13:43.635Z,13.70
2019-05-07T20:16:16.232Z,13.70
2019-05-07T20:18:45.525Z,13.60
2019-05-07T20:21:27.420Z,13.70
2019-05-07T20:23:56.741Z,13.70
2019-05-07T20:26:26.275Z,13.60
2019-05-07T20:28:55.583Z,13.60
2019-05-07T20:31:24.939Z,13.60
2019-05-07T20:33:54.732Z,13.60
2019-05-07T20:36:24.019Z,13.60
2019-05-07T20:38:53.273Z,13.60
2019-05-07T20:41:23.286Z,13.50
2019-05-07T20:43:53.034Z,13.50
2019-05-07T20:46:22.346Z,13.50
2019-05-07T20:48:52.602Z,13.50
2019-05-07T20:51:23.224Z,13.50
2019-05-07T20:54:22.706Z,13.50
2019-05-07T20:57:02.270Z,13.50
2019-05-07T20:59:32.748Z,13.40
2019-05-07T21:02:02.453Z,13.40
2019-05-07T21:04:33.011Z,13.40
2019-05-07T21:07:02.968Z,13.40
2019-05-07T21:09:32.967Z,13.40
2019-05-07T21:12:02.364Z,13.40
2019-05-07T21:14:32.483Z,13.30
2019-05-07T21:17:01.966Z,13.30
2019-05-07T21:19:33.102Z,13.30
2019-05-07T21:22:02.270Z,13.30
2019-05-07T21:24:33.065Z,13.30
2019-05-07T21:27:02.754Z,13.30
2019-05-07T21:29:32.821Z,13.20
2019-05-07T21:32:03.332Z,13.20
2019-05-07T21:34:33.014Z,13.20
2019-05-07T21:37:03.231Z,13.20
2019-05-07T21:39:33.115Z,13.20
2019-05-07T21:42:02.745Z,13.20
2019-05-07T21:44:32.644Z,13.10
2019-05-07T21:47:03.951Z,13.10
2019-05-07T21:49:33.340Z,13.10
2019-05-07T21:52:02.732Z,13.10
2019-05-07T21:55:02.227Z,13.00
2019-05-07T21:57:47.422Z,13.00
2019-05-07T22:00:23.193Z,13.00
2019-05-07T22:02:53.011Z,12.90
2019-05-07T22:05:22.540Z,12.90
2019-05-07T22:07:54.151Z,12.90
2019-05-07T22:10:23.103Z,12.80
2019-05-07T22:12:54.603Z,12.80
2019-05-07T22:15:23.261Z,12.70
2019-05-07T22:17:52.438Z,12.70
2019-05-07T22:20:21.738Z,12.70
2019-05-07T22:22:52.139Z,12.60
2019-05-07T22:25:22.157Z,12.60
2019-05-07T22:27:52.960Z,12.60
2019-05-07T22:30:29.405Z,12.50
2019-05-07T22:33:04.249Z,12.50
2019-05-07T22:35:39.995Z,12.40
2019-05-07T22:38:09.223Z,12.40
2019-05-07T22:40:38.500Z,12.40
2019-05-07T22:43:07.721Z,12.40
2019-05-07T22:45:36.953Z,12.30
2019-05-07T22:48:06.151Z,12.30
2019-05-07T22:50:35.433Z,12.30
2019-05-07T22:53:04.705Z,12.30
2019-05-07T22:55:34.029Z,12.30
2019-05-07T22:58:14.176Z,12.30
2019-05-07T23:00:50.491Z,12.20
2019-05-07T23:03:19.904Z,12.20
2019-05-07T23:05:49.134Z,12.20
2019-05-07T23:08:18.381Z,12.20
2019-05-07T23:10:47.627Z,12.20
2019-05-07T23:13:16.884Z,12.20
2019-05-07T23:15:46.335Z,12.10
2019-05-07T23:18:16.307Z,12.10
2019-05-07T23:20:45.565Z,12.10
2019-05-07T23:23:15.257Z,12.10
2019-05-07T23:25:44.455Z,12.00
2019-05-07T23:28:13.776Z,12.00
2019-05-07T23:30:44.326Z,12.00
2019-05-07T23:33:14.335Z,11.90
2019-05-07T23:35:43.606Z,11.90
2019-05-07T23:38:15.753Z,11.90
2019-05-07T23:41:02.112Z,11.90
2019-05-07T23:43:32.582Z,11.90
2019-05-07T23:46:02.509Z,11.90
2019-05-07T23:48:32.234Z,11.90
2019-05-07T23:51:02.292Z,11.90
2019-05-07T23:53:31.692Z,11.90
2019-05-07T23:56:02.842Z,11.80
2019-05-07T23:58:32.644Z,11.80
